Whitesville, NY

5:41 PM EDT on June 03, 2015 (GMT -0400)
Elmira-Corning Regional | | Change Station
CLOSE
Current Station
Airport
Location: Elmira,
Elevation: 951 ft
Nearby Weather Stations

Elev 951 ft 42.16 °N, 76.89 °W | Updated 48 minutes ago

Clear
Clear
71 °F
Feels Like 71 °F
N
7
Wind Variable Wind from SE

Today
High -- | Low -- °F
--% Chance of Precip.
Yesterday
High -- | Low -- °F
Precip. -- in
5:37 AM 8:41 PM
Full, 98% visible
Pressure 30.14 in
Visibility 10.0 miles
Clouds Clear
Dew Point 48 °F
Humidity 44%
Rainfall 0.00 in
Snow Depth Not available.
UV 5 out of 12
Pollen 9.00 out of 12
Air Quality Not available.
Flu Activity Sporadic
METAR KELM 032053Z AUTO 14006KT 10SM CLR 22/09 A3014 RMK AO2 SLP207 T02170089 56017

More Conditions Fewer Conditions

Pressure 30.14 in
Visibility 10.0 miles
Clouds Clear
Dew Point 48 °F
Humidity 44%
Rainfall 0.00 in
Snow Depth Not available.
UV 5 out of 12
Pollen 9.00 out of 12
Air Quality Not available.
Flu Activity Sporadic
METAR KELM 032053Z AUTO 14006KT 10SM CLR 22/09 A3014 RMK AO2 SLP207 T02170089 56017

More Conditions Fewer Conditions

10-Day Weather Forecast

×

Almanac

Astronomy

Jun. 03, 2015 Rise Set
Actual Time
Civil Twilight
Nautical Twilight
Astronomical Twilight
Moon
Length of Visible Light
Length of Day
Tomorrow will be .
, % of the Moon is Illuminated

Today's Extremes

State Highs State Lows

Community

WunderPhotos

Upload Photos

1,826,291 photos uploaded!

WunderBlogs® & News

Nearby

Air Quality

  Air Quality AQ Index Pollutant
Not available.

Snow Depth

Station Depth Elevation

Earthquake Activity

City Distance Mag. Time & Date
Minimum magnitude displayed is 2.5.

Coastal Water Temperatures

Place Temperature

Stations

Nearby Weather Stations

Station Location Temp. Windchill Dew Point Humidity Wind Precip. Elev Updated Type